Airport View

Enter AWOS ICAO identifier for current METAR.

ex. KFNL

KCVX 251155Z AUTO 17006KT 10SM SCT050 BKN065 OVC100 17/14 A2994 RMK AO2 T01660142 10166 20150

25 Sep 2020 12:07

Frequency: 120.0

Phone: 231-237-9703

Other Area AWOS: KMGN - KACB - KPLN - KSJX

TAF KPLN 251134Z 2512/2612 VRB03KT P6SM BKN004 FM251300 17005KT P6SM BKN009 FM251400 18006KT P6SM BKN015 FM251500 21007KT P6SM BKN025 FM251700 22010G18KT P6SM SCT045 FM252000 22011G22KT P6SM FEW050 FM252200 22008KT P6SM FEW250 FM260100 20006KT P6SM SCT180 WS016/20035KT FM260300 20010G20KT P6SM BKN150 WS016/21040KT FM260700 21013G20KT P6SM BKN050 WS016/22040KT